sensor_id;sensor_type;location;lat;lon;timestamp;temperature;humidity
802;DHT22;383;48.766;9.270;2022-12-18T03:46:58;-6.30;93.30
802;DHT22;383;48.766;9.270;2022-12-18T03:49:35;-6.30;93.10
802;DHT22;383;48.766;9.270;2022-12-18T03:52:06;-6.30;92.50
802;DHT22;383;48.766;9.270;2022-12-18T03:54:35;-6.30;92.20
802;DHT22;383;48.766;9.270;2022-12-18T03:57:06;-6.40;92.10
802;DHT22;383;48.766;9.270;2022-12-18T03:59:35;-6.40;91.90
802;DHT22;383;48.766;9.270;2022-12-18T04:02:04;-6.40;91.80
802;DHT22;383;48.766;9.270;2022-12-18T04:04:33;-6.40;91.50
802;DHT22;383;48.766;9.270;2022-12-18T04:07:01;-6.50;91.40
802;DHT22;383;48.766;9.270;2022-12-18T04:09:30;-6.60;91.40
802;DHT22;383;48.766;9.270;2022-12-18T04:11:58;-6.60;91.60
802;DHT22;383;48.766;9.270;2022-12-18T04:14:25;-6.70;91.50
802;DHT22;383;48.766;9.270;2022-12-18T04:16:52;-6.70;91.90
802;DHT22;383;48.766;9.270;2022-12-18T04:19:20;-6.70;92.20
802;DHT22;383;48.766;9.270;2022-12-18T04:21:46;-6.70;92.10
802;DHT22;383;48.766;9.270;2022-12-18T04:24:13;-6.70;91.80
802;DHT22;383;48.766;9.270;2022-12-18T04:26:40;-6.80;91.20
802;DHT22;383;48.766;9.270;2022-12-18T04:29:07;-6.90;91.40
802;DHT22;383;48.766;9.270;2022-12-18T04:31:33;-6.90;91.70
802;DHT22;383;48.766;9.270;2022-12-18T04:36:29;-7.00;91.90
802;DHT22;383;48.766;9.270;2022-12-18T04:38:56;-7.00;91.90
802;DHT22;383;48.766;9.270;2022-12-18T04:41:23;-7.10;91.90
802;DHT22;383;48.766;9.270;2022-12-18T04:43:50;-7.10;91.70
802;DHT22;383;48.766;9.270;2022-12-18T04:46:16;-7.10;91.60
802;DHT22;383;48.766;9.270;2022-12-18T04:48:45;-7.10;91.20
802;DHT22;383;48.766;9.270;2022-12-18T04:51:13;-7.10;91.10
802;DHT22;383;48.766;9.270;2022-12-18T04:53:41;-7.10;91.10
802;DHT22;383;48.766;9.270;2022-12-18T04:56:10;-7.20;91.00
802;DHT22;383;48.766;9.270;2022-12-18T04:58:37;-7.20;91.10
802;DHT22;383;48.766;9.270;2022-12-18T05:01:05;-7.20;91.10
802;DHT22;383;48.766;9.270;2022-12-18T05:03:33;-7.20;91.20
802;DHT22;383;48.766;9.270;2022-12-18T05:06:00;-7.30;91.10
802;DHT22;383;48.766;9.270;2022-12-18T05:08:27;-7.30;91.30
802;DHT22;383;48.766;9.270;2022-12-18T05:11:00;-7.30;91.50
802;DHT22;383;48.766;9.270;2022-12-18T05:13:27;-7.30;91.40
802;DHT22;383;48.766;9.270;2022-12-18T05:15:54;-7.30;91.20
802;DHT22;383;48.766;9.270;2022-12-18T05:18:21;-7.30;90.60
802;DHT22;383;48.766;9.270;2022-12-18T05:20:49;-7.40;90.80
802;DHT22;383;48.766;9.270;2022-12-18T05:23:16;-7.50;90.80
802;DHT22;383;48.766;9.270;2022-12-18T05:25:47;-7.50;91.10
802;DHT22;383;48.766;9.270;2022-12-18T05:28:16;-7.60;91.10
802;DHT22;383;48.766;9.270;2022-12-18T05:30:47;-7.60;91.40
802;DHT22;383;48.766;9.270;2022-12-18T05:33:16;-7.50;91.50
802;DHT22;383;48.766;9.270;2022-12-18T05:35:43;-7.60;91.40
802;DHT22;383;48.766;9.270;2022-12-18T05:38:10;-7.60;91.30
802;DHT22;383;48.766;9.270;2022-12-18T05:40:37;-7.50;91.30
802;DHT22;383;48.766;9.270;2022-12-18T05:43:04;-7.50;90.90
802;DHT22;383;48.766;9.270;2022-12-18T05:45:32;-7.50;90.70
802;DHT22;383;48.766;9.270;2022-12-18T05:47:58;-7.50;90.20
802;DHT22;383;48.766;9.270;2022-12-18T05:50:25;-7.50;90.20
802;DHT22;383;48.766;9.270;2022-12-18T05:52:52;-7.50;90.10
802;DHT22;383;48.766;9.270;2022-12-18T05:55:19;-7.50;90.10
802;DHT22;383;48.766;9.270;2022-12-18T05:57:48;-7.50;89.80
802;DHT22;383;48.766;9.270;2022-12-18T06:00:16;-7.50;89.30
802;DHT22;383;48.766;9.270;2022-12-18T06:02:48;-7.50;89.00
802;DHT22;383;48.766;9.270;2022-12-18T06:05:15;-7.50;89.30
802;DHT22;383;48.766;9.270;2022-12-18T06:07:42;-7.60;89.20
802;DHT22;383;48.766;9.270;2022-12-18T06:10:08;-7.70;89.30
802;DHT22;383;48.766;9.270;2022-12-18T06:12:35;-7.80;89.30
802;DHT22;383;48.766;9.270;2022-12-18T06:15:02;-7.80;89.60
802;DHT22;383;48.766;9.270;2022-12-18T06:17:29;-7.80;89.70
802;DHT22;383;48.766;9.270;2022-12-18T06:19:58;-7.90;89.60
802;DHT22;383;48.766;9.270;2022-12-18T06:22:25;-7.90;89.80
802;DHT22;383;48.766;9.270;2022-12-18T06:24:52;-7.90;89.90
802;DHT22;383;48.766;9.270;2022-12-18T06:27:22;-7.90;90.30
802;DHT22;383;48.766;9.270;2022-12-18T06:29:49;-7.90;90.20
802;DHT22;383;48.766;9.270;2022-12-18T06:32:18;-7.90;90.20
802;DHT22;383;48.766;9.270;2022-12-18T06:34:45;-8.00;90.30
802;DHT22;383;48.766;9.270;2022-12-18T06:37:15;-8.00;90.40
802;DHT22;383;48.766;9.270;2022-12-18T06:39:42;-8.00;90.60
802;DHT22;383;48.766;9.270;2022-12-18T06:42:09;-8.00;90.60
802;DHT22;383;48.766;9.270;2022-12-18T06:44:36;-7.90;90.50
802;DHT22;383;48.766;9.270;2022-12-18T06:47:03;-7.90;90.30
802;DHT22;383;48.766;9.270;2022-12-18T06:49:30;-8.00;90.20
802;DHT22;383;48.766;9.270;2022-12-18T06:51:59;-7.90;90.00
802;DHT22;383;48.766;9.270;2022-12-18T06:54:27;-8.00;89.80
802;DHT22;383;48.766;9.270;2022-12-18T06:56:54;-7.90;89.60
802;DHT22;383;48.766;9.270;2022-12-18T06:59:21;-7.90;89.00
802;DHT22;383;48.766;9.270;2022-12-18T07:01:48;-8.00;88.50
802;DHT22;383;48.766;9.270;2022-12-18T07:04:15;-8.00;88.50
802;DHT22;383;48.766;9.270;2022-12-18T07:06:41;-8.00;88.20
802;DHT22;383;48.766;9.270;2022-12-18T07:09:08;-8.10;88.40
802;DHT22;383;48.766;9.270;2022-12-18T07:11:36;-8.10;88.80
802;DHT22;383;48.766;9.270;2022-12-18T07:14:03;-8.20;89.20
802;DHT22;383;48.766;9.270;2022-12-18T07:16:30;-8.20;89.40
802;DHT22;383;48.766;9.270;2022-12-18T07:18:57;-8.20;89.70
802;DHT22;383;48.766;9.270;2022-12-18T07:21:24;-8.20;89.70
802;DHT22;383;48.766;9.270;2022-12-18T07:23:51;-8.20;89.90
802;DHT22;383;48.766;9.270;2022-12-18T07:26:20;-8.10;90.30
802;DHT22;383;48.766;9.270;2022-12-18T07:28:48;-8.00;90.20
802;DHT22;383;48.766;9.270;2022-12-18T07:31:17;-8.00;90.00
802;DHT22;383;48.766;9.270;2022-12-18T07:33:44;-8.00;90.00
802;DHT22;383;48.766;9.270;2022-12-18T07:36:12;-7.90;89.90
802;DHT22;383;48.766;9.270;2022-12-18T07:38:39;-8.00;89.20
802;DHT22;383;48.766;9.270;2022-12-18T07:41:08;-8.00;89.80
802;DHT22;383;48.766;9.270;2022-12-18T07:43:36;-8.00;89.80
802;DHT22;383;48.766;9.270;2022-12-18T07:46:04;-7.90;89.80
802;DHT22;383;48.766;9.270;2022-12-18T07:48:31;-7.90;90.20
802;DHT22;383;48.766;9.270;2022-12-18T07:50:59;-7.80;90.20
802;DHT22;383;48.766;9.270;2022-12-18T07:53:30;-7.80;90.30
802;DHT22;383;48.766;9.270;2022-12-18T07:55:57;-7.80;90.30
802;DHT22;383;48.766;9.270;2022-12-18T07:58:24;-7.70;90.30
802;DHT22;383;48.766;9.270;2022-12-18T08:00:51;-7.70;90.10
802;DHT22;383;48.766;9.270;2022-12-18T08:03:20;-7.70;89.70
802;DHT22;383;48.766;9.270;2022-12-18T08:05:47;-7.80;89.20
802;DHT22;383;48.766;9.270;2022-12-18T08:08:13;-7.70;89.20
802;DHT22;383;48.766;9.270;2022-12-18T08:10:40;-7.70;88.80
802;DHT22;383;48.766;9.270;2022-12-18T08:13:07;-7.80;88.50
802;DHT22;383;48.766;9.270;2022-12-18T08:15:34;-7.80;88.60
802;DHT22;383;48.766;9.270;2022-12-18T08:18:01;-7.80;88.80
802;DHT22;383;48.766;9.270;2022-12-18T08:20:32;-7.80;89.40
802;DHT22;383;48.766;9.270;2022-12-18T08:22:58;-7.70;89.70
802;DHT22;383;48.766;9.270;2022-12-18T08:25:25;-7.60;89.80
802;DHT22;383;48.766;9.270;2022-12-18T08:27:52;-7.60;89.80
802;DHT22;383;48.766;9.270;2022-12-18T08:30:19;-7.50;90.00
802;DHT22;383;48.766;9.270;2022-12-18T08:32:46;-7.40;89.80
802;DHT22;383;48.766;9.270;2022-12-18T08:35:14;-7.40;89.70
802;DHT22;383;48.766;9.270;2022-12-18T08:37:46;-7.30;89.70
802;DHT22;383;48.766;9.270;2022-12-18T08:40:15;-7.20;89.30
802;DHT22;383;48.766;9.270;2022-12-18T08:42:42;-7.20;89.40
802;DHT22;383;48.766;9.270;2022-12-18T08:45:26;-7.10;89.60
802;DHT22;383;48.766;9.270;2022-12-18T08:47:56;-7.00;88.10
802;DHT22;383;48.766;9.270;2022-12-18T08:50:23;-6.90;87.70
802;DHT22;383;48.766;9.270;2022-12-18T08:52:51;-6.90;88.00
802;DHT22;383;48.766;9.270;2022-12-18T08:55:18;-6.90;88.00
802;DHT22;383;48.766;9.270;2022-12-18T08:57:48;-6.90;88.20
802;DHT22;383;48.766;9.270;2022-12-18T09:00:15;-6.80;88.80
802;DHT22;383;48.766;9.270;2022-12-18T09:02:44;-6.80;88.90
802;DHT22;383;48.766;9.270;2022-12-18T09:05:11;-6.70;88.80
802;DHT22;383;48.766;9.270;2022-12-18T09:07:38;-6.60;88.80
802;DHT22;383;48.766;9.270;2022-12-18T09:10:07;-6.50;88.00
802;DHT22;383;48.766;9.270;2022-12-18T09:12:34;-6.50;88.50
802;DHT22;383;48.766;9.270;2022-12-18T09:15:00;-6.40;88.80
802;DHT22;383;48.766;9.270;2022-12-18T09:17:28;-6.30;88.90
802;DHT22;383;48.766;9.270;2022-12-18T09:19:55;-6.30;89.40
802;DHT22;383;48.766;9.270;2022-12-18T09:22:22;-6.30;89.60
802;DHT22;383;48.766;9.270;2022-12-18T09:24:49;-6.10;89.80
802;DHT22;383;48.766;9.270;2022-12-18T09:27:18;-6.00;89.80
802;DHT22;383;48.766;9.270;2022-12-18T09:29:45;-5.90;89.70
802;DHT22;383;48.766;9.270;2022-12-18T09:32:14;-5.70;89.60
802;DHT22;383;48.766;9.270;2022-12-18T09:34:41;-5.60;89.40
802;DHT22;383;48.766;9.270;2022-12-18T09:37:08;-5.40;88.40
802;DHT22;383;48.766;9.270;2022-12-18T09:39:34;-5.40;88.00
802;DHT22;383;48.766;9.270;2022-12-18T09:42:09;-5.20;87.40
802;DHT22;383;48.766;9.270;2022-12-18T09:44:47;-5.10;86.10
802;DHT22;383;48.766;9.270;2022-12-18T09:47:17;-5.00;85.30
802;DHT22;383;48.766;9.270;2022-12-18T09:49:46;-5.00;85.30
802;DHT22;383;48.766;9.270;2022-12-18T09:52:17;-4.90;84.50
802;DHT22;383;48.766;9.270;2022-12-18T09:54:49;-4.90;84.80
802;DHT22;383;48.766;9.270;2022-12-18T09:57:20;-4.90;85.20
802;DHT22;383;48.766;9.270;2022-12-18T09:59:53;-5.00;85.60
802;DHT22;383;48.766;9.270;2022-12-18T10:02:25;-4.80;85.60
802;DHT22;383;48.766;9.270;2022-12-18T10:05:05;-4.70;85.50
802;DHT22;383;48.766;9.270;2022-12-18T10:07:39;-4.60;84.80
802;DHT22;383;48.766;9.270;2022-12-18T10:10:15;-4.50;84.10
802;DHT22;383;48.766;9.270;2022-12-18T10:12:49;-4.60;84.90
802;DHT22;383;48.766;9.270;2022-12-18T10:15:27;-4.60;86.00
802;DHT22;383;48.766;9.270;2022-12-18T10:18:02;-4.40;86.40
802;DHT22;383;48.766;9.270;2022-12-18T10:20:36;-4.30;86.50
802;DHT22;383;48.766;9.270;2022-12-18T10:23:11;-4.30;85.90
802;DHT22;383;48.766;9.270;2022-12-18T10:25:55;-4.10;86.00
802;DHT22;383;48.766;9.270;2022-12-18T10:28:25;-4.00;85.30
802;DHT22;383;48.766;9.270;2022-12-18T10:30:53;-3.90;85.30
802;DHT22;383;48.766;9.270;2022-12-18T10:33:22;-3.70;85.10
802;DHT22;383;48.766;9.270;2022-12-18T10:35:50;-3.60;84.50
802;DHT22;383;48.766;9.270;2022-12-18T10:38:23;-3.60;84.50
802;DHT22;383;48.766;9.270;2022-12-18T10:40:52;-3.50;85.10
802;DHT22;383;48.766;9.270;2022-12-18T10:43:22;-3.50;85.20
802;DHT22;383;48.766;9.270;2022-12-18T10:46:11;-3.30;84.90
802;DHT22;383;48.766;9.270;2022-12-18T10:48:47;-3.10;84.70
802;DHT22;383;48.766;9.270;2022-12-18T10:51:20;-2.90;83.00
802;DHT22;383;48.766;9.270;2022-12-18T10:53:52;-2.90;83.10
802;DHT22;383;48.766;9.270;2022-12-18T10:56:21;-2.90;83.20
802;DHT22;383;48.766;9.270;2022-12-18T10:58:56;-2.80;83.90
802;DHT22;383;48.766;9.270;2022-12-18T11:01:24;-2.70;84.10
802;DHT22;383;48.766;9.270;2022-12-18T11:04:00;-2.60;84.30
802;DHT22;383;48.766;9.270;2022-12-18T11:06:27;-2.50;84.40
802;DHT22;383;48.766;9.270;2022-12-18T11:08:59;-2.40;83.60
802;DHT22;383;48.766;9.270;2022-12-18T11:11:26;-2.30;82.80
802;DHT22;383;48.766;9.270;2022-12-18T11:14:01;-2.10;82.00
802;DHT22;383;48.766;9.270;2022-12-18T11:16:33;-2.00;82.00
802;DHT22;383;48.766;9.270;2022-12-18T11:19:20;-2.00;81.40
802;DHT22;383;48.766;9.270;2022-12-18T11:21:48;-1.90;81.80
802;DHT22;383;48.766;9.270;2022-12-18T11:24:20;-1.70;81.90
802;DHT22;383;48.766;9.270;2022-12-18T11:26:48;-1.70;81.60
802;DHT22;383;48.766;9.270;2022-12-18T11:29:17;-1.70;81.10
802;DHT22;383;48.766;9.270;2022-12-18T11:31:46;-1.50;81.10
802;DHT22;383;48.766;9.270;2022-12-18T11:34:15;-1.40;80.80
802;DHT22;383;48.766;9.270;2022-12-18T11:36:45;-1.40;80.60
802;DHT22;383;48.766;9.270;2022-12-18T11:39:17;-1.30;80.40
802;DHT22;383;48.766;9.270;2022-12-18T11:41:50;-1.30;79.80
802;DHT22;383;48.766;9.270;2022-12-18T11:44:42;-1.20;79.80
802;DHT22;383;48.766;9.270;2022-12-18T11:47:16;-1.10;79.30
802;DHT22;383;48.766;9.270;2022-12-18T11:49:48;-1.10;79.90
802;DHT22;383;48.766;9.270;2022-12-18T11:52:19;-1.20;79.50
802;DHT22;383;48.766;9.270;2022-12-18T11:54:51;-1.10;79.50
802;DHT22;383;48.766;9.270;2022-12-18T11:57:27;-1.00;80.20
802;DHT22;383;48.766;9.270;2022-12-18T12:00:02;-0.90;79.00
802;DHT22;383;48.766;9.270;2022-12-18T12:02:45;-0.90;79.40
802;DHT22;383;48.766;9.270;2022-12-18T12:05:24;-0.90;80.00
802;DHT22;383;48.766;9.270;2022-12-18T12:07:59;-0.70;79.90
802;DHT22;383;48.766;9.270;2022-12-18T12:10:40;-0.60;79.80
802;DHT22;383;48.766;9.270;2022-12-18T12:13:27;-0.50;79.70
802;DHT22;383;48.766;9.270;2022-12-18T12:16:04;-0.40;79.00
802;DHT22;383;48.766;9.270;2022-12-18T12:18:47;-0.40;78.70
802;DHT22;383;48.766;9.270;2022-12-18T12:21:22;-0.30;78.60
802;DHT22;383;48.766;9.270;2022-12-18T12:23:57;-0.30;78.50
802;DHT22;383;48.766;9.270;2022-12-18T12:26:31;-0.30;78.90
802;DHT22;383;48.766;9.270;2022-12-18T12:29:06;-0.30;79.70
802;DHT22;383;48.766;9.270;2022-12-18T12:31:53;-0.20;79.50
802;DHT22;383;48.766;9.270;2022-12-18T12:34:28;-0.30;79.40
802;DHT22;383;48.766;9.270;2022-12-18T12:37:08;-0.20;80.20
802;DHT22;383;48.766;9.270;2022-12-18T12:39:40;-0.10;80.60
802;DHT22;383;48.766;9.270;2022-12-18T12:42:14;0.00;80.30
802;DHT22;383;48.766;9.270;2022-12-18T12:45:05;0.10;79.50
802;DHT22;383;48.766;9.270;2022-12-18T12:47:37;0.20;78.90
802;DHT22;383;48.766;9.270;2022-12-18T12:50:13;0.20;79.10
802;DHT22;383;48.766;9.270;2022-12-18T12:52:43;0.20;79.10
802;DHT22;383;48.766;9.270;2022-12-18T12:55:16;0.30;78.90
802;DHT22;383;48.766;9.270;2022-12-18T12:57:46;0.30;79.40
802;DHT22;383;48.766;9.270;2022-12-18T13:00:18;0.30;79.40
802;DHT22;383;48.766;9.270;2022-12-18T13:02:51;0.40;78.90
802;DHT22;383;48.766;9.270;2022-12-18T13:05:27;0.40;78.90
802;DHT22;383;48.766;9.270;2022-12-18T13:07:59;0.40;79.00
802;DHT22;383;48.766;9.270;2022-12-18T13:10:38;0.40;79.30
802;DHT22;383;48.766;9.270;2022-12-18T13:13:07;0.50;79.70
802;DHT22;383;48.766;9.270;2022-12-18T13:15:37;0.50;79.80
802;DHT22;383;48.766;9.270;2022-12-18T13:18:16;0.60;79.80
802;DHT22;383;48.766;9.270;2022-12-18T13:23:30;0.70;78.70
802;DHT22;383;48.766;9.270;2022-12-18T13:25:58;0.80;79.30
802;DHT22;383;48.766;9.270;2022-12-18T13:28:50;0.80;79.10
802;DHT22;383;48.766;9.270;2022-12-18T13:34:36;1.00;78.70
802;DHT22;383;48.766;9.270;2022-12-18T13:37:42;1.00;78.10
802;DHT22;383;48.766;9.270;2022-12-18T13:43:27;1.00;77.90
802;DHT22;383;48.766;9.270;2022-12-18T13:46:06;1.00;78.50
802;DHT22;383;48.766;9.270;2022-12-18T13:48:50;1.10;78.20
802;DHT22;383;48.766;9.270;2022-12-18T13:51:19;1.20;76.90
802;DHT22;383;48.766;9.270;2022-12-18T13:53:50;1.20;77.40
802;DHT22;383;48.766;9.270;2022-12-18T13:56:18;1.20;77.70
802;DHT22;383;48.766;9.270;2022-12-18T13:59:15;1.20;77.70
802;DHT22;383;48.766;9.270;2022-12-18T14:01:45;1.20;77.70
802;DHT22;383;48.766;9.270;2022-12-18T14:04:19;1.20;77.50
802;DHT22;383;48.766;9.270;2022-12-18T14:06:50;1.20;77.70
802;DHT22;383;48.766;9.270;2022-12-18T14:09:25;1.20;78.10
802;DHT22;383;48.766;9.270;2022-12-18T14:11:53;1.10;78.60
802;DHT22;383;48.766;9.270;2022-12-18T14:14:43;1.10;78.90
802;DHT22;383;48.766;9.270;2022-12-18T14:17:11;1.10;79.30
802;DHT22;383;48.766;9.270;2022-12-18T14:19:42;1.00;79.40
802;DHT22;383;48.766;9.270;2022-12-18T14:22:15;1.00;79.70
802;DHT22;383;48.766;9.270;2022-12-18T14:24:42;1.00;79.70
802;DHT22;383;48.766;9.270;2022-12-18T14:27:20;0.90;79.70
802;DHT22;383;48.766;9.270;2022-12-18T14:29:47;0.80;79.90
802;DHT22;383;48.766;9.270;2022-12-18T14:32:15;0.80;80.00
802;DHT22;383;48.766;9.270;2022-12-18T14:34:43;0.70;80.40
802;DHT22;383;48.766;9.270;2022-12-18T14:37:11;0.70;80.60
802;DHT22;383;48.766;9.270;2022-12-18T14:39:39;0.60;80.70
802;DHT22;383;48.766;9.270;2022-12-18T14:42:10;0.60;81.00
802;DHT22;383;48.766;9.270;2022-12-18T14:44:37;0.50;81.20
802;DHT22;383;48.766;9.270;2022-12-18T14:47:04;0.50;81.50
802;DHT22;383;48.766;9.270;2022-12-18T14:49:32;0.40;81.80
802;DHT22;383;48.766;9.270;2022-12-18T14:52:00;0.30;82.00
802;DHT22;383;48.766;9.270;2022-12-18T14:54:28;0.20;82.40
802;DHT22;383;48.766;9.270;2022-12-18T14:57:00;0.20;82.60
802;DHT22;383;48.766;9.270;2022-12-18T14:59:29;0.10;82.80
802;DHT22;383;48.766;9.270;2022-12-18T15:02:02;0.00;83.00
802;DHT22;383;48.766;9.270;2022-12-18T15:04:32;0.00;83.10
802;DHT22;383;48.766;9.270;2022-12-18T15:07:13;-0.10;83.40
802;DHT22;383;48.766;9.270;2022-12-18T15:09:43;-0.20;83.60
802;DHT22;383;48.766;9.270;2022-12-18T15:12:26;-0.30;83.70
802;DHT22;383;48.766;9.270;2022-12-18T15:14:54;-0.40;84.10
802;DHT22;383;48.766;9.270;2022-12-18T15:17:22;-0.50;84.40
802;DHT22;383;48.766;9.270;2022-12-18T15:19:58;-0.50;84.90
802;DHT22;383;48.766;9.270;2022-12-18T15:22:27;-0.60;85.10
802;DHT22;383;48.766;9.270;2022-12-18T15:24:55;-0.70;85.20
802;DHT22;383;48.766;9.270;2022-12-18T15:27:26;-0.80;85.60
802;DHT22;383;48.766;9.270;2022-12-18T15:30:19;-0.80;86.00
802;DHT22;383;48.766;9.270;2022-12-18T15:32:47;-0.90;86.40
802;DHT22;383;48.766;9.270;2022-12-18T15:35:17;-1.00;86.50
802;DHT22;383;48.766;9.270;2022-12-18T15:37:44;-1.10;87.10
802;DHT22;383;48.766;9.270;2022-12-18T15:40:15;-1.20;87.40
802;DHT22;383;48.766;9.270;2022-12-18T15:42:44;-1.20;88.20
802;DHT22;383;48.766;9.270;2022-12-18T15:45:29;-1.30;88.40
802;DHT22;383;48.766;9.270;2022-12-18T15:47:57;-1.30;88.90
802;DHT22;383;48.766;9.270;2022-12-18T15:50:24;-1.40;88.80
802;DHT22;383;48.766;9.270;2022-12-18T15:52:52;-1.60;89.40
802;DHT22;383;48.766;9.270;2022-12-18T15:55:22;-1.60;89.80
802;DHT22;383;48.766;9.270;2022-12-18T15:58:09;-1.70;89.90
802;DHT22;383;48.766;9.270;2022-12-18T16:00:38;-1.70;90.10
802;DHT22;383;48.766;9.270;2022-12-18T16:03:06;-1.80;90.00
802;DHT22;383;48.766;9.270;2022-12-18T16:05:33;-1.80;90.10
802;DHT22;383;48.766;9.270;2022-12-18T16:08:00;-1.90;90.00
802;DHT22;383;48.766;9.270;2022-12-18T16:10:27;-2.00;90.10
802;DHT22;383;48.766;9.270;2022-12-18T16:12:54;-2.00;90.40
802;DHT22;383;48.766;9.270;2022-12-18T16:15:22;-2.00;90.10
802;DHT22;383;48.766;9.270;2022-12-18T16:17:49;-2.10;90.30
802;DHT22;383;48.766;9.270;2022-12-18T16:20:18;-2.20;90.80
802;DHT22;383;48.766;9.270;2022-12-18T16:22:46;-2.20;91.20
802;DHT22;383;48.766;9.270;2022-12-18T16:25:18;-2.20;91.30
802;DHT22;383;48.766;9.270;2022-12-18T16:27:45;-2.30;91.20
802;DHT22;383;48.766;9.270;2022-12-18T16:30:14;-2.30;91.30
802;DHT22;383;48.766;9.270;2022-12-18T16:32:42;-2.30;91.70
802;DHT22;383;48.766;9.270;2022-12-18T16:35:10;-2.30;91.50
802;DHT22;383;48.766;9.270;2022-12-18T16:37:38;-2.40;91.90
802;DHT22;383;48.766;9.270;2022-12-18T16:40:06;-2.40;92.10
802;DHT22;383;48.766;9.270;2022-12-18T16:42:35;-2.50;92.10
802;DHT22;383;48.766;9.270;2022-12-18T16:45:03;-2.50;92.20
802;DHT22;383;48.766;9.270;2022-12-18T16:47:30;-2.50;92.20
802;DHT22;383;48.766;9.270;2022-12-18T16:49:59;-2.50;92.40
802;DHT22;383;48.766;9.270;2022-12-18T16:52:26;-2.40;92.30
802;DHT22;383;48.766;9.270;2022-12-18T16:54:52;-2.40;92.40
802;DHT22;383;48.766;9.270;2022-12-18T16:57:20;-2.50;92.60
802;DHT22;383;48.766;9.270;2022-12-18T16:59:48;-2.50;92.50
802;DHT22;383;48.766;9.270;2022-12-18T17:02:16;-2.40;92.60
802;DHT22;383;48.766;9.270;2022-12-18T17:04:44;-2.40;92.40
802;DHT22;383;48.766;9.270;2022-12-18T17:07:13;-2.50;92.70
802;DHT22;383;48.766;9.270;2022-12-18T17:09:40;-2.50;93.10
802;DHT22;383;48.766;9.270;2022-12-18T17:12:08;-2.50;93.00
802;DHT22;383;48.766;9.270;2022-12-18T17:14:35;-2.50;92.90
802;DHT22;383;48.766;9.270;2022-12-18T17:17:03;-2.50;93.00
802;DHT22;383;48.766;9.270;2022-12-18T17:19:30;-2.50;93.20
802;DHT22;383;48.766;9.270;2022-12-18T17:21:56;-2.40;93.40
802;DHT22;383;48.766;9.270;2022-12-18T17:24:25;-2.40;93.60
802;DHT22;383;48.766;9.270;2022-12-18T17:26:51;-2.40;93.90
802;DHT22;383;48.766;9.270;2022-12-18T17:29:19;-2.30;94.00
802;DHT22;383;48.766;9.270;2022-12-18T17:31:46;-2.20;94.00
802;DHT22;383;48.766;9.270;2022-12-18T17:34:14;-2.10;93.90
802;DHT22;383;48.766;9.270;2022-12-18T17:36:41;-2.10;93.70
802;DHT22;383;48.766;9.270;2022-12-18T17:39:16;-2.00;93.80
802;DHT22;383;48.766;9.270;2022-12-18T17:41:45;-1.90;93.70
802;DHT22;383;48.766;9.270;2022-12-18T17:44:12;-1.80;93.20
802;DHT22;383;48.766;9.270;2022-12-18T17:46:40;-1.70;92.30
802;DHT22;383;48.766;9.270;2022-12-18T17:49:08;-1.70;91.80
802;DHT22;383;48.766;9.270;2022-12-18T17:51:35;-1.70;91.90
802;DHT22;383;48.766;9.270;2022-12-18T17:54:02;-1.70;91.60
802;DHT22;383;48.766;9.270;2022-12-18T17:56:29;-1.70;91.60
802;DHT22;383;48.766;9.270;2022-12-18T17:58:58;-1.70;91.70
802;DHT22;383;48.766;9.270;2022-12-18T18:01:25;-1.60;91.50
802;DHT22;383;48.766;9.270;2022-12-18T18:03:52;-1.60;91.50
802;DHT22;383;48.766;9.270;2022-12-18T18:06:20;-1.60;91.40
802;DHT22;383;48.766;9.270;2022-12-18T18:08:47;-1.50;90.80
802;DHT22;383;48.766;9.270;2022-12-18T18:11:16;-1.50;91.00
802;DHT22;383;48.766;9.270;2022-12-18T18:14:04;-1.50;90.60
802;DHT22;383;48.766;9.270;2022-12-18T18:16:33;-1.50;91.00
802;DHT22;383;48.766;9.270;2022-12-18T18:19:02;-1.50;90.90
802;DHT22;383;48.766;9.270;2022-12-18T18:21:30;-1.50;90.60
802;DHT22;383;48.766;9.270;2022-12-18T18:23:59;-1.50;90.20
802;DHT22;383;48.766;9.270;2022-12-18T18:26:26;-1.50;90.30
802;DHT22;383;48.766;9.270;2022-12-18T18:28:56;-1.50;90.70
802;DHT22;383;48.766;9.270;2022-12-18T18:31:25;-1.50;90.60
802;DHT22;383;48.766;9.270;2022-12-18T18:33:52;-1.40;90.40
802;DHT22;383;48.766;9.270;2022-12-18T18:36:20;-1.50;90.50
802;DHT22;383;48.766;9.270;2022-12-18T18:38:46;-1.40;90.80
802;DHT22;383;48.766;9.270;2022-12-18T18:41:14;-1.40;90.30
802;DHT22;383;48.766;9.270;2022-12-18T18:43:41;-1.40;90.70
802;DHT22;383;48.766;9.270;2022-12-18T18:46:11;-1.30;90.40
802;DHT22;383;48.766;9.270;2022-12-18T18:48:39;-1.30;90.50
802;DHT22;383;48.766;9.270;2022-12-18T18:51:09;-1.30;90.60
802;DHT22;383;48.766;9.270;2022-12-18T18:53:37;-1.30;90.70
802;DHT22;383;48.766;9.270;2022-12-18T18:56:05;-1.30;90.60
802;DHT22;383;48.766;9.270;2022-12-18T18:58:32;-1.30;90.80
802;DHT22;383;48.766;9.270;2022-12-18T19:01:01;-1.20;90.30
802;DHT22;383;48.766;9.270;2022-12-18T19:03:28;-1.10;89.90
802;DHT22;383;48.766;9.270;2022-12-18T19:05:58;-1.20;89.60
802;DHT22;383;48.766;9.270;2022-12-18T19:08:27;-1.20;89.40
802;DHT22;383;48.766;9.270;2022-12-18T19:10:55;-1.20;89.80
802;DHT22;383;48.766;9.270;2022-12-18T19:13:24;-1.20;90.00
802;DHT22;383;48.766;9.270;2022-12-18T19:15:53;-1.20;89.80
802;DHT22;383;48.766;9.270;2022-12-18T19:18:20;-1.20;90.10
802;DHT22;383;48.766;9.270;2022-12-18T19:20:56;-1.10;89.80
802;DHT22;383;48.766;9.270;2022-12-18T19:23:24;-1.20;89.70
802;DHT22;383;48.766;9.270;2022-12-18T19:25:51;-1.20;89.40
802;DHT22;383;48.766;9.270;2022-12-18T19:28:20;-1.20;89.20
802;DHT22;383;48.766;9.270;2022-12-18T19:30:51;-1.30;88.90
802;DHT22;383;48.766;9.270;2022-12-18T19:33:20;-1.30;89.00
802;DHT22;383;48.766;9.270;2022-12-18T19:35:47;-1.30;89.30
802;DHT22;383;48.766;9.270;2022-12-18T19:38:15;-1.30;89.20
802;DHT22;383;48.766;9.270;2022-12-18T19:40:43;-1.40;89.20
802;DHT22;383;48.766;9.270;2022-12-18T19:43:10;-1.40;89.00
802;DHT22;383;48.766;9.270;2022-12-18T19:45:37;-1.40;89.00
802;DHT22;383;48.766;9.270;2022-12-18T19:48:04;-1.60;88.80
802;DHT22;383;48.766;9.270;2022-12-18T19:50:31;-1.50;89.20
802;DHT22;383;48.766;9.270;2022-12-18T19:52:58;-1.50;89.30
802;DHT22;383;48.766;9.270;2022-12-18T19:55:26;-1.50;89.30
802;DHT22;383;48.766;9.270;2022-12-18T19:57:53;-1.50;88.80
802;DHT22;383;48.766;9.270;2022-12-18T20:00:23;-1.40;89.20
802;DHT22;383;48.766;9.270;2022-12-18T20:02:49;-1.30;89.20
802;DHT22;383;48.766;9.270;2022-12-18T20:05:16;-1.30;88.80
802;DHT22;383;48.766;9.270;2022-12-18T20:07:49;-1.30;88.90
802;DHT22;383;48.766;9.270;2022-12-18T20:10:17;-1.30;88.50
802;DHT22;383;48.766;9.270;2022-12-18T20:12:46;-1.40;88.50
802;DHT22;383;48.766;9.270;2022-12-18T20:15:13;-1.40;89.00
802;DHT22;383;48.766;9.270;2022-12-18T20:17:40;-1.50;89.60
802;DHT22;383;48.766;9.270;2022-12-18T20:20:08;-1.40;90.00
802;DHT22;383;48.766;9.270;2022-12-18T20:22:48;-1.40;89.90
802;DHT22;383;48.766;9.270;2022-12-18T20:25:26;-1.40;89.70
802;DHT22;383;48.766;9.270;2022-12-18T20:27:54;-1.30;89.70
802;DHT22;383;48.766;9.270;2022-12-18T20:30:21;-1.30;88.90
802;DHT22;383;48.766;9.270;2022-12-18T20:32:48;-1.40;89.20
802;DHT22;383;48.766;9.270;2022-12-18T20:35:15;-1.40;89.60
802;DHT22;383;48.766;9.270;2022-12-18T20:37:42;-1.40;89.70
802;DHT22;383;48.766;9.270;2022-12-18T20:40:09;-1.40;89.80
802;DHT22;383;48.766;9.270;2022-12-18T20:42:36;-1.50;90.10
802;DHT22;383;48.766;9.270;2022-12-18T20:45:08;-1.50;90.00
802;DHT22;383;48.766;9.270;2022-12-18T20:47:35;-1.60;90.10
802;DHT22;383;48.766;9.270;2022-12-18T20:50:03;-1.70;90.10
802;DHT22;383;48.766;9.270;2022-12-18T20:52:30;-1.70;90.50